Time;durP1;ratioP1;P1;durP2;ratioP2;P2;SDS_P1;SDS_P2;PMS_P1;PMS_P2;Temp;Humidity;BMP_temperature;BMP_pressure;BME280_temperature;BME280_humidity;BME280_pressure;Samples;Min_cycle;Max_cycle;Signal;HPM_P1;HPM_P2
2023/08/17 00:01:51;;;;;;;8.00;4.85;;;;;;;;;;5017626;28;20088;-70
2023/08/17 00:04:16;;;;;;;9.15;5.63;;;;;;;;;;5049649;28;20035;-70
2023/08/17 00:06:42;;;;;;;8.18;4.70;;;;;;;;;;5052022;28;20033;-70
2023/08/17 00:09:08;;;;;;;6.88;4.75;;;;;;;;;;5038897;28;20037;-69
2023/08/17 00:11:34;;;;;;;10.23;5.00;;;;;;;;;;5038939;28;20474;-70
2023/08/17 00:14:00;;;;;;;8.10;5.15;;;;;;;;;;5047330;28;20060;-70
2023/08/17 00:16:25;;;;;;;9.60;5.03;;;;;;;;;;5043924;28;20033;-70
2023/08/17 00:18:51;;;;;;;7.80;5.00;;;;;;;;;;5037364;28;20065;-70
2023/08/17 00:21:16;;;;;;;7.75;4.78;;;;;;;;;;5039465;28;20035;-70
2023/08/17 00:23:42;;;;;;;7.45;5.80;;;;;;;;;;5043353;28;20043;-70
2023/08/17 00:26:08;;;;;;;10.23;6.18;;;;;;;;;;5046615;28;20059;-70
2023/08/17 00:28:33;;;;;;;13.32;6.00;;;;;;;;;;5023452;28;20041;-71
2023/08/17 00:31:00;;;;;;;9.30;5.72;;;;;;;;;;5033236;28;20054;-70
2023/08/17 00:33:25;;;;;;;11.80;5.57;;;;;;;;;;5015137;28;20041;-70
2023/08/17 00:35:50;;;;;;;11.18;5.80;;;;;;;;;;5018690;28;20068;-70
2023/08/17 00:38:16;;;;;;;8.57;5.55;;;;;;;;;;5047489;28;20083;-70
2023/08/17 00:40:41;;;;;;;10.38;6.18;;;;;;;;;;5015406;28;20518;-70
2023/08/17 00:43:07;;;;;;;11.10;5.70;;;;;;;;;;5028308;28;20063;-70
2023/08/17 00:45:32;;;;;;;10.00;5.55;;;;;;;;;;5013730;28;20419;-70
2023/08/17 00:47:58;;;;;;;8.48;5.70;;;;;;;;;;5025862;28;20574;-70
2023/08/17 00:50:25;;;;;;;9.48;5.70;;;;;;;;;;5047964;28;20024;-70
2023/08/17 00:52:52;;;;;;;9.20;5.60;;;;;;;;;;5046224;28;20506;-70
2023/08/17 00:55:18;;;;;;;9.98;5.95;;;;;;;;;;5043336;28;20087;-70
2023/08/17 00:57:43;;;;;;;8.38;5.70;;;;;;;;;;5041226;28;20044;-70
2023/08/17 01:00:11;;;;;;;9.30;5.20;;;;;;;;;;5048952;28;20033;-70
2023/08/17 01:02:37;;;;;;;10.52;5.50;;;;;;;;;;5050329;28;20032;-70
2023/08/17 01:05:03;;;;;;;8.18;5.20;;;;;;;;;;5049781;28;20060;-70
2023/08/17 01:07:28;;;;;;;8.55;5.55;;;;;;;;;;5037963;28;20100;-70
2023/08/17 01:09:54;;;;;;;9.63;5.28;;;;;;;;;;5054549;28;20539;-71
2023/08/17 01:12:29;;;;;;;9.73;5.85;;;;;;;;;;5061560;28;20044;-70
2023/08/17 01:15:16;;;;;;;8.52;5.65;;;;;;;;;;5051536;28;20025;-70
2023/08/17 01:17:50;;;;;;;8.82;5.57;;;;;;;;;;5039288;28;20168;-70
2023/08/17 01:20:17;;;;;;;10.82;6.13;;;;;;;;;;5050413;28;20561;-70
2023/08/17 01:22:45;;;;;;;8.77;5.28;;;;;;;;;;5042501;28;20124;-70
2023/08/17 01:25:11;;;;;;;10.45;5.78;;;;;;;;;;5049442;28;20119;-70
2023/08/17 01:27:41;;;;;;;11.43;5.75;;;;;;;;;;5049363;28;20119;-70
2023/08/17 01:30:09;;;;;;;8.98;6.10;;;;;;;;;;5048738;28;20045;-70
2023/08/17 01:32:46;;;;;;;8.57;5.57;;;;;;;;;;5049212;28;20025;-70
2023/08/17 01:35:18;;;;;;;9.02;5.10;;;;;;;;;;5048913;28;20122;-70
2023/08/17 01:37:44;;;;;;;10.33;5.33;;;;;;;;;;5048001;28;20041;-70
2023/08/17 01:40:12;;;;;;;9.07;5.80;;;;;;;;;;5049804;28;20469;-70
2023/08/17 01:42:38;;;;;;;10.70;5.88;;;;;;;;;;5048192;28;20037;-70
2023/08/17 01:45:04;;;;;;;10.50;5.55;;;;;;;;;;5049031;28;20033;-70
2023/08/17 01:47:30;;;;;;;9.15;5.25;;;;;;;;;;5049739;28;20031;-70
2023/08/17 01:49:59;;;;;;;11.27;6.25;;;;;;;;;;5049581;28;20078;-70
2023/08/17 01:52:27;;;;;;;9.40;5.63;;;;;;;;;;5049105;28;20048;-70
2023/08/17 01:54:52;;;;;;;8.48;5.10;;;;;;;;;;5046588;28;20052;-70
2023/08/17 01:57:17;;;;;;;9.77;5.43;;;;;;;;;;5049744;28;20036;-70
2023/08/17 01:59:43;;;;;;;12.90;5.68;;;;;;;;;;5047710;28;20036;-70
2023/08/17 02:02:09;;;;;;;9.43;5.68;;;;;;;;;;5049798;28;20028;-71
2023/08/17 02:04:34;;;;;;;9.38;5.78;;;;;;;;;;5057372;28;20032;-70
2023/08/17 02:07:00;;;;;;;9.52;5.13;;;;;;;;;;5054116;28;20379;-70
2023/08/17 02:09:25;;;;;;;9.52;6.00;;;;;;;;;;5048285;28;20028;-70
2023/08/17 02:11:50;;;;;;;9.20;6.15;;;;;;;;;;5043529;28;20029;-69
2023/08/17 02:14:16;;;;;;;11.25;6.07;;;;;;;;;;5046842;28;20021;-70
2023/08/17 02:16:42;;;;;;;9.82;5.85;;;;;;;;;;5045270;28;20426;-69
2023/08/17 02:19:07;;;;;;;11.63;5.63;;;;;;;;;;5056884;28;20465;-70
2023/08/17 02:21:33;;;;;;;10.32;5.72;;;;;;;;;;5040412;28;20045;-70
2023/08/17 02:23:58;;;;;;;9.75;5.88;;;;;;;;;;5040601;28;20029;-70
2023/08/17 02:26:23;;;;;;;7.65;5.28;;;;;;;;;;5041883;28;20018;-70
2023/08/17 02:28:49;;;;;;;10.15;5.63;;;;;;;;;;5035337;28;20427;-70
2023/08/17 02:31:14;;;;;;;8.10;5.43;;;;;;;;;;5045132;28;20134;-70
2023/08/17 02:33:39;;;;;;;12.07;5.90;;;;;;;;;;5046557;28;20132;-70
2023/08/17 02:36:05;;;;;;;10.35;5.88;;;;;;;;;;5061064;28;20550;-70
2023/08/17 02:38:31;;;;;;;13.25;5.93;;;;;;;;;;5054314;28;20020;-70
2023/08/17 02:40:56;;;;;;;8.70;5.50;;;;;;;;;;5036131;28;20041;-70
2023/08/17 02:43:21;;;;;;;10.63;5.38;;;;;;;;;;5026949;28;20041;-70
2023/08/17 02:45:47;;;;;;;8.00;5.38;;;;;;;;;;5024197;28;20042;-70
2023/08/17 02:48:12;;;;;;;9.23;5.82;;;;;;;;;;5030178;28;20395;-70
2023/08/17 02:50:37;;;;;;;7.57;5.40;;;;;;;;;;5045667;28;20113;-70
2023/08/17 02:53:03;;;;;;;9.90;5.90;;;;;;;;;;5045730;28;20037;-70
2023/08/17 02:55:28;;;;;;;9.48;5.82;;;;;;;;;;5030098;28;20033;-70
2023/08/17 02:57:53;;;;;;;12.23;5.88;;;;;;;;;;5025209;28;20041;-70
2023/08/17 03:00:19;;;;;;;8.90;5.60;;;;;;;;;;5007804;28;20033;-70
2023/08/17 03:02:44;;;;;;;9.25;5.93;;;;;;;;;;5024010;28;20033;-70
2023/08/17 03:05:10;;;;;;;11.95;6.35;;;;;;;;;;5045800;28;20106;-70
2023/08/17 03:07:35;;;;;;;10.00;6.10;;;;;;;;;;5045373;28;20037;-70
2023/08/17 03:10:00;;;;;;;11.82;6.20;;;;;;;;;;5044966;28;20426;-70
2023/08/17 03:12:26;;;;;;;8.88;5.60;;;;;;;;;;5045067;28;20088;-70
2023/08/17 03:14:51;;;;;;;11.35;6.05;;;;;;;;;;5045070;28;20032;-70
2023/08/17 03:17:16;;;;;;;9.80;6.25;;;;;;;;;;5043367;28;20125;-70
2023/08/17 03:19:42;;;;;;;11.82;6.47;;;;;;;;;;5027392;28;20069;-70
2023/08/17 03:22:07;;;;;;;12.07;6.68;;;;;;;;;;5024803;28;20041;-70
2023/08/17 03:24:32;;;;;;;9.43;6.00;;;;;;;;;;5023277;28;20029;-70
2023/08/17 03:26:58;;;;;;;11.57;6.15;;;;;;;;;;5025931;28;20059;-70
2023/08/17 03:29:23;;;;;;;10.63;6.75;;;;;;;;;;5035869;28;20637;-70
2023/08/17 03:31:49;;;;;;;12.20;6.13;;;;;;;;;;5024059;28;20037;-70
2023/08/17 03:34:15;;;;;;;9.15;5.78;;;;;;;;;;5037987;28;20040;-70
2023/08/17 03:36:41;;;;;;;9.13;6.07;;;;;;;;;;5043695;28;20040;-70
2023/08/17 03:39:06;;;;;;;10.40;6.20;;;;;;;;;;5044536;28;20116;-70
2023/08/17 03:41:32;;;;;;;11.65;6.30;;;;;;;;;;5040383;28;20037;-70
2023/08/17 03:43:57;;;;;;;13.55;6.32;;;;;;;;;;5024212;28;20753;-70
2023/08/17 03:46:22;;;;;;;13.07;6.63;;;;;;;;;;5041604;28;20033;-70
2023/08/17 03:48:48;;;;;;;11.50;7.28;;;;;;;;;;5044754;28;20043;-70
2023/08/17 03:51:13;;;;;;;9.80;5.70;;;;;;;;;;5044351;28;20061;-70
2023/08/17 03:53:38;;;;;;;10.23;6.40;;;;;;;;;;5044312;28;20044;-70
2023/08/17 03:56:04;;;;;;;10.93;6.38;;;;;;;;;;5044475;28;20033;-70
2023/08/17 03:58:33;;;;;;;9.57;6.18;;;;;;;;;;5043086;28;20851;-70
2023/08/17 04:00:58;;;;;;;8.45;5.50;;;;;;;;;;5044909;28;20040;-70
2023/08/17 04:03:23;;;;;;;11.00;6.25;;;;;;;;;;5039161;28;20029;-70
2023/08/17 04:05:49;;;;;;;11.80;6.63;;;;;;;;;;5050372;28;20021;-70
2023/08/17 04:08:14;;;;;;;9.65;5.70;;;;;;;;;;5053024;28;20052;-70
2023/08/17 04:10:39;;;;;;;7.78;5.38;;;;;;;;;;5042347;28;20033;-70
2023/08/17 04:13:05;;;;;;;14.27;6.18;;;;;;;;;;5042089;28;20414;-70
2023/08/17 04:15:30;;;;;;;10.30;6.18;;;;;;;;;;5043216;28;20040;-70
2023/08/17 04:17:56;;;;;;;11.05;6.05;;;;;;;;;;5043823;28;20029;-70
2023/08/17 04:20:22;;;;;;;8.40;5.70;;;;;;;;;;5029987;28;20600;-70
2023/08/17 04:22:48;;;;;;;8.48;5.90;;;;;;;;;;5042900;28;20057;-70
2023/08/17 04:25:13;;;;;;;11.02;6.10;;;;;;;;;;5041741;28;20067;-70
2023/08/17 04:27:39;;;;;;;9.10;5.50;;;;;;;;;;5035542;28;20037;-70
2023/08/17 04:30:05;;;;;;;7.65;5.47;;;;;;;;;;5037909;28;20083;-70
2023/08/17 04:32:30;;;;;;;12.57;6.35;;;;;;;;;;5043533;28;20032;-70
2023/08/17 04:34:56;;;;;;;11.60;5.53;;;;;;;;;;5042578;28;20051;-70
2023/08/17 04:37:21;;;;;;;9.27;5.75;;;;;;;;;;5043227;28;20044;-70
2023/08/17 04:39:48;;;;;;;10.68;5.60;;;;;;;;;;5042971;28;20028;-70
2023/08/17 04:42:14;;;;;;;8.10;5.70;;;;;;;;;;5041208;28;20066;-70
2023/08/17 04:44:39;;;;;;;7.43;5.30;;;;;;;;;;5043527;28;20028;-70
2023/08/17 04:47:05;;;;;;;9.55;5.90;;;;;;;;;;5043644;28;20072;-70
2023/08/17 04:49:30;;;;;;;10.23;5.78;;;;;;;;;;5043310;28;20036;-70
2023/08/17 04:51:56;;;;;;;9.20;5.20;;;;;;;;;;5043360;28;20518;-70
2023/08/17 04:54:21;;;;;;;7.63;5.07;;;;;;;;;;5043066;28;20177;-70
2023/08/17 04:56:47;;;;;;;7.30;5.18;;;;;;;;;;5042946;28;20457;-70
2023/08/17 04:59:12;;;;;;;7.85;4.78;;;;;;;;;;5043993;28;20111;-70
2023/08/17 05:01:38;;;;;;;7.80;5.05;;;;;;;;;;5042687;28;20068;-70
2023/08/17 05:04:04;;;;;;;12.40;5.55;;;;;;;;;;5043056;28;20498;-70
2023/08/17 05:06:30;;;;;;;8.60;5.25;;;;;;;;;;5043099;28;20528;-70
2023/08/17 05:08:56;;;;;;;9.85;5.38;;;;;;;;;;5042895;28;20056;-70
2023/08/17 05:11:21;;;;;;;7.88;4.95;;;;;;;;;;5043904;28;20116;-70
2023/08/17 05:13:46;;;;;;;11.20;5.65;;;;;;;;;;5043085;28;20120;-70
2023/08/17 05:16:12;;;;;;;9.23;4.63;;;;;;;;;;5043151;28;20049;-70
2023/08/17 05:18:37;;;;;;;9.27;5.07;;;;;;;;;;5055869;28;20041;-70
2023/08/17 05:21:03;;;;;;;9.20;4.95;;;;;;;;;;5043109;28;20029;-70
2023/08/17 05:23:28;;;;;;;8.95;5.25;;;;;;;;;;5042233;28;20056;-70
2023/08/17 05:25:54;;;;;;;9.23;5.00;;;;;;;;;;5050011;28;20216;-70
2023/08/17 05:28:19;;;;;;;8.05;4.78;;;;;;;;;;5050324;28;20044;-70
2023/08/17 05:30:45;;;;;;;8.38;5.00;;;;;;;;;;5045723;28;20041;-70
2023/08/17 05:33:10;;;;;;;7.75;4.80;;;;;;;;;;5046925;28;20037;-70
2023/08/17 05:35:35;;;;;;;8.77;4.60;;;;;;;;;;5031585;28;20033;-70
2023/08/17 05:38:01;;;;;;;8.13;4.72;;;;;;;;;;5022976;28;20045;-70
2023/08/17 05:40:30;;;;;;;11.13;5.13;;;;;;;;;;5011373;28;20033;-70
2023/08/17 05:42:55;;;;;;;9.55;4.97;;;;;;;;;;5027022;28;20045;-70
2023/08/17 05:45:20;;;;;;;8.38;4.90;;;;;;;;;;5039839;28;20098;-70
2023/08/17 05:47:46;;;;;;;8.63;4.72;;;;;;;;;;5041853;28;20378;-70
2023/08/17 05:50:11;;;;;;;8.23;5.15;;;;;;;;;;5034810;28;20048;-70
2023/08/17 05:52:36;;;;;;;7.53;4.63;;;;;;;;;;5027995;28;20384;-70
2023/08/17 05:55:02;;;;;;;6.72;4.90;;;;;;;;;;5025478;28;20053;-70
2023/08/17 05:57:28;;;;;;;10.48;5.15;;;;;;;;;;5048322;28;20067;-70
2023/08/17 05:59:53;;;;;;;11.13;4.75;;;;;;;;;;5047141;28;20119;-70
2023/08/17 06:02:18;;;;;;;6.45;4.75;;;;;;;;;;5046448;28;20489;-70
2023/08/17 06:04:44;;;;;;;7.05;4.55;;;;;;;;;;5061018;28;20116;-71
2023/08/17 06:07:09;;;;;;;10.13;4.75;;;;;;;;;;5045143;28;20076;-70
2023/08/17 06:09:34;;;;;;;8.88;4.50;;;;;;;;;;5045058;28;20425;-70
2023/08/17 06:12:00;;;;;;;7.63;4.80;;;;;;;;;;5043433;28;20074;-70
2023/08/17 06:14:25;;;;;;;9.45;4.82;;;;;;;;;;5046653;28;20044;-70
2023/08/17 06:16:50;;;;;;;10.38;4.80;;;;;;;;;;5033036;28;20183;-70
2023/08/17 06:19:16;;;;;;;6.65;4.63;;;;;;;;;;5045763;28;20080;-70
2023/08/17 06:21:41;;;;;;;6.80;4.60;;;;;;;;;;5057111;28;20043;-70
2023/08/17 06:24:06;;;;;;;8.48;4.80;;;;;;;;;;5046068;28;20032;-70
2023/08/17 06:26:32;;;;;;;7.95;4.30;;;;;;;;;;5042633;28;20036;-70
2023/08/17 06:28:57;;;;;;;8.45;4.82;;;;;;;;;;5046228;28;20096;-70
2023/08/17 06:31:27;;;;;;;7.72;5.15;;;;;;;;;;5044252;28;20149;-70
2023/08/17 06:33:53;;;;;;;7.75;4.50;;;;;;;;;;5044027;28;20721;-70
2023/08/17 06:36:18;;;;;;;11.32;4.70;;;;;;;;;;5044484;28;20045;-69
2023/08/17 06:38:44;;;;;;;7.00;4.47;;;;;;;;;;5043804;28;20035;-70
2023/08/17 06:41:09;;;;;;;7.63;4.68;;;;;;;;;;5044707;28;20037;-70
2023/08/17 06:43:35;;;;;;;8.48;4.63;;;;;;;;;;5039326;28;20060;-70
2023/08/17 06:46:01;;;;;;;10.15;4.47;;;;;;;;;;5037320;28;20038;-70
2023/08/17 06:48:27;;;;;;;8.98;4.38;;;;;;;;;;5045640;28;20036;-70
2023/08/17 06:50:52;;;;;;;7.57;4.40;;;;;;;;;;5045364;28;20075;-70
2023/08/17 06:53:18;;;;;;;6.60;4.57;;;;;;;;;;5046170;28;20052;-70
2023/08/17 06:55:43;;;;;;;7.40;4.55;;;;;;;;;;5046473;28;20049;-70
2023/08/17 06:58:08;;;;;;;6.30;4.40;;;;;;;;;;5049531;28;20037;-70
2023/08/17 07:00:35;;;;;;;8.05;4.78;;;;;;;;;;5056545;28;20033;-70
2023/08/17 07:03:00;;;;;;;7.70;4.70;;;;;;;;;;5051198;28;20040;-70
2023/08/17 07:05:26;;;;;;;8.15;4.63;;;;;;;;;;5046226;28;20186;-70
2023/08/17 07:07:52;;;;;;;9.10;4.80;;;;;;;;;;5042879;28;20448;-71
2023/08/17 07:10:18;;;;;;;10.45;4.63;;;;;;;;;;5043730;28;20039;-71
2023/08/17 07:12:44;;;;;;;11.85;4.93;;;;;;;;;;5034939;28;20029;-70
2023/08/17 07:15:10;;;;;;;8.35;4.72;;;;;;;;;;5041511;28;20048;-70
2023/08/17 07:17:36;;;;;;;10.00;5.40;;;;;;;;;;5051587;28;20150;-70
2023/08/17 07:20:02;;;;;;;6.65;4.60;;;;;;;;;;5051911;28;20549;-70
2023/08/17 07:22:27;;;;;;;11.60;4.75;;;;;;;;;;5044515;28;20029;-70
2023/08/17 07:24:53;;;;;;;7.95;5.05;;;;;;;;;;5042900;28;20037;-70
2023/08/17 07:27:18;;;;;;;9.10;5.18;;;;;;;;;;5056189;28;20052;-70
2023/08/17 07:29:44;;;;;;;7.00;4.95;;;;;;;;;;5044534;28;20045;-70
2023/08/17 07:32:09;;;;;;;8.63;5.00;;;;;;;;;;5043822;28;20021;-70
2023/08/17 07:34:36;;;;;;;11.40;5.03;;;;;;;;;;5043521;28;20040;-70
2023/08/17 07:37:04;;;;;;;8.40;5.13;;;;;;;;;;5039275;28;20579;-70
2023/08/17 07:39:29;;;;;;;11.70;5.20;;;;;;;;;;5038023;28;20558;-70
2023/08/17 07:41:55;;;;;;;8.57;5.72;;;;;;;;;;5039807;28;20496;-70
2023/08/17 07:44:20;;;;;;;10.85;5.18;;;;;;;;;;5042312;28;20128;-70
2023/08/17 07:46:45;;;;;;;18.73;4.95;;;;;;;;;;5041430;28;20052;-70
2023/08/17 07:49:11;;;;;;;9.45;4.95;;;;;;;;;;5042328;28;20037;-70
2023/08/17 07:51:36;;;;;;;13.23;4.95;;;;;;;;;;5042150;28;20488;-70
2023/08/17 07:54:02;;;;;;;12.95;5.75;;;;;;;;;;5035546;28;20115;-70
2023/08/17 07:56:27;;;;;;;10.45;5.20;;;;;;;;;;5034347;28;20037;-70
2023/08/17 07:58:55;;;;;;;8.35;5.20;;;;;;;;;;5024459;28;20037;-70
2023/08/17 08:01:22;;;;;;;9.43;5.13;;;;;;;;;;5015446;28;20143;-70
2023/08/17 08:03:48;;;;;;;9.65;5.20;;;;;;;;;;5036768;28;20036;-69
2023/08/17 08:06:13;;;;;;;10.00;4.60;;;;;;;;;;4980599;28;20045;-69
2023/08/17 08:08:40;;;;;;;11.68;4.97;;;;;;;;;;4976180;28;20469;-70
2023/08/17 08:11:05;;;;;;;12.10;5.20;;;;;;;;;;5040429;28;20147;-70
2023/08/17 08:13:31;;;;;;;11.45;5.25;;;;;;;;;;5036901;28;20144;-71
2023/08/17 08:15:58;;;;;;;13.20;5.45;;;;;;;;;;5040101;28;20072;-71
2023/08/17 08:18:25;;;;;;;14.95;5.75;;;;;;;;;;5055308;28;20039;-70
2023/08/17 08:20:50;;;;;;;13.23;5.22;;;;;;;;;;5043434;28;20032;-70
2023/08/17 08:23:15;;;;;;;9.77;5.70;;;;;;;;;;5040065;28;20036;-71
2023/08/17 08:25:41;;;;;;;10.52;5.50;;;;;;;;;;5044917;28;20056;-70
2023/08/17 08:28:06;;;;;;;11.13;5.75;;;;;;;;;;5054879;28;20437;-70
2023/08/17 08:30:32;;;;;;;13.73;5.65;;;;;;;;;;5045042;28;20052;-70
2023/08/17 08:32:58;;;;;;;12.55;6.03;;;;;;;;;;5032314;28;20037;-69
2023/08/17 08:35:24;;;;;;;12.13;6.15;;;;;;;;;;5038731;28;20033;-70
2023/08/17 08:37:50;;;;;;;13.48;5.93;;;;;;;;;;5018674;28;20060;-70
2023/08/17 08:40:17;;;;;;;10.85;6.13;;;;;;;;;;5025937;28;20033;-70
2023/08/17 08:42:43;;;;;;;15.82;6.85;;;;;;;;;;5028787;28;20868;-69
2023/08/17 08:45:08;;;;;;;13.25;6.50;;;;;;;;;;5031847;28;20066;-70
2023/08/17 08:47:37;;;;;;;12.90;6.65;;;;;;;;;;5035659;28;20092;-70
2023/08/17 08:50:04;;;;;;;16.35;7.07;;;;;;;;;;5039910;28;20102;-70
2023/08/17 08:52:35;;;;;;;15.85;7.25;;;;;;;;;;5026503;28;20041;-70
2023/08/17 08:55:10;;;;;;;18.77;6.93;;;;;;;;;;5041023;28;20036;-70
2023/08/17 08:57:36;;;;;;;17.50;6.80;;;;;;;;;;5040431;28;20032;-70
2023/08/17 09:00:03;;;;;;;14.80;7.22;;;;;;;;;;5033497;28;20079;-70
2023/08/17 09:02:29;;;;;;;14.23;8.07;;;;;;;;;;5020875;28;20024;-70
2023/08/17 09:04:55;;;;;;;15.95;6.82;;;;;;;;;;5040492;28;20175;-70
2023/08/17 09:07:22;;;;;;;19.98;8.07;;;;;;;;;;5040524;28;20899;-71
2023/08/17 09:09:48;;;;;;;16.08;7.22;;;;;;;;;;5034746;28;20036;-70
2023/08/17 09:12:13;;;;;;;15.90;7.05;;;;;;;;;;5040078;28;20052;-70
2023/08/17 09:14:40;;;;;;;19.20;8.20;;;;;;;;;;5041680;28;20032;-70
2023/08/17 09:17:06;;;;;;;21.30;8.05;;;;;;;;;;5041910;28;20071;-70
2023/08/17 09:19:34;;;;;;;19.48;8.90;;;;;;;;;;5041565;28;20060;-70
2023/08/17 09:22:00;;;;;;;12.30;7.10;;;;;;;;;;5040904;28;20041;-72
2023/08/17 09:24:39;;;;;;;17.40;7.82;;;;;;;;;;5017652;28;20040;-70
2023/08/17 09:27:04;;;;;;;19.42;8.18;;;;;;;;;;5041519;28;20044;-70
2023/08/17 09:29:37;;;;;;;16.88;8.13;;;;;;;;;;5043500;28;20048;-70
2023/08/17 09:32:07;;;;;;;;;;;;;;;;;;5044503;28;20053;-70
2023/08/17 09:34:32;;;;;;;16.27;8.02;;;;;;;;;;5045649;28;19928;-70
2023/08/17 09:37:03;;;;;;;16.35;8.05;;;;;;;;;;5044724;28;20469;-70
2023/08/17 09:39:28;;;;;;;22.35;8.88;;;;;;;;;;5044472;28;20044;-70
2023/08/17 09:41:54;;;;;;;19.08;8.45;;;;;;;;;;5030058;28;20025;-70
2023/08/17 09:44:20;;;;;;;23.25;8.93;;;;;;;;;;5032776;28;20410;-70
2023/08/17 09:46:46;;;;;;;17.98;8.20;;;;;;;;;;5045638;28;20045;-71
2023/08/17 09:49:11;;;;;;;22.88;8.95;;;;;;;;;;5045461;28;20175;-70
2023/08/17 09:51:37;;;;;;;18.48;8.60;;;;;;;;;;5051374;28;20040;-70
2023/08/17 09:54:02;;;;;;;15.73;8.18;;;;;;;;;;5050308;28;22387;-70
2023/08/17 09:56:28;;;;;;;19.17;8.48;;;;;;;;;;5017174;28;20578;-69
2023/08/17 09:58:54;;;;;;;18.85;7.90;;;;;;;;;;5008076;28;20041;-70
2023/08/17 10:01:21;;;;;;;14.07;7.53;;;;;;;;;;5003741;28;20041;-70
2023/08/17 10:03:49;;;;;;;16.98;8.57;;;;;;;;;;5032036;28;20522;-70
2023/08/17 10:06:22;;;;;;;18.08;8.70;;;;;;;;;;5043959;28;20040;-70
2023/08/17 10:08:49;;;;;;;16.00;8.43;;;;;;;;;;5044101;28;20107;-70
2023/08/17 10:11:19;;;;;;;17.50;8.90;;;;;;;;;;5044130;28;20033;-70
2023/08/17 10:14:02;;;;;;;17.10;8.52;;;;;;;;;;5042580;28;20037;-71
2023/08/17 10:16:44;;;;;;;19.95;9.60;;;;;;;;;;5030922;28;20533;-70
2023/08/17 10:19:34;;;;;;;17.92;9.07;;;;;;;;;;5042376;28;20071;-70
2023/08/17 10:22:10;;;;;;;18.73;9.88;;;;;;;;;;5042170;28;20151;-71
2023/08/17 10:24:37;;;;;;;22.20;9.63;;;;;;;;;;5044034;28;20112;-70
2023/08/17 10:27:05;;;;;;;19.70;9.32;;;;;;;;;;5040392;28;20342;-70
2023/08/17 10:29:31;;;;;;;18.08;8.82;;;;;;;;;;5034039;28;20053;-70
2023/08/17 10:31:58;;;;;;;22.23;9.93;;;;;;;;;;5035546;28;20100;-70
2023/08/17 10:34:24;;;;;;;22.35;9.38;;;;;;;;;;5043581;28;20178;-70
2023/08/17 10:36:50;;;;;;;24.55;9.43;;;;;;;;;;5043064;28;20052;-71
2023/08/17 10:39:20;;;;;;;20.27;9.73;;;;;;;;;;5043040;28;20044;-70
2023/08/17 10:41:50;;;;;;;20.45;9.70;;;;;;;;;;5043703;28;20036;-70
2023/08/17 10:44:47;;;;;;;19.42;9.45;;;;;;;;;;5043881;28;20028;-70
2023/08/17 10:47:25;;;;;;;20.25;10.20;;;;;;;;;;5042026;28;20575;-70
2023/08/17 10:49:58;;;;;;;17.95;9.45;;;;;;;;;;5043370;28;20477;-71
2023/08/17 10:52:33;;;;;;;17.65;9.25;;;;;;;;;;5051871;28;20044;-70
2023/08/17 10:55:05;;;;;;;17.02;10.13;;;;;;;;;;5043022;28;20136;-70
2023/08/17 10:57:35;;;;;;;20.00;10.10;;;;;;;;;;5043325;28;20081;-70
2023/08/17 11:00:31;;;;;;;19.85;10.45;;;;;;;;;;5043439;28;20124;-70
2023/08/17 11:03:01;;;;;;;18.00;9.35;;;;;;;;;;5041202;28;20032;-70
2023/08/17 11:05:43;;;;;;;22.25;10.80;;;;;;;;;;5047632;28;20082;-70
2023/08/17 11:08:50;;;;;;;15.43;9.43;;;;;;;;;;5043051;28;20041;-70
2023/08/17 11:11:16;;;;;;;17.55;9.18;;;;;;;;;;5019075;28;20511;-70
2023/08/17 11:13:44;;;;;;;17.67;9.70;;;;;;;;;;5019770;28;20045;-70
2023/08/17 11:16:11;;;;;;;16.58;9.48;;;;;;;;;;5025391;28;20048;-70
2023/08/17 11:18:37;;;;;;;16.98;10.13;;;;;;;;;;5025680;28;20124;-70
2023/08/17 11:21:04;;;;;;;17.55;9.38;;;;;;;;;;5036066;28;20107;-70
2023/08/17 11:23:30;;;;;;;17.52;9.60;;;;;;;;;;5028258;28;20049;-70
2023/08/17 11:25:56;;;;;;;17.02;10.05;;;;;;;;;;5036306;28;20838;-70
2023/08/17 11:28:22;;;;;;;17.42;9.73;;;;;;;;;;5036605;28;20045;-70
2023/08/17 11:30:58;;;;;;;18.67;10.30;;;;;;;;;;5042066;28;20044;-70
2023/08/17 11:33:25;;;;;;;17.83;9.98;;;;;;;;;;5035019;28;20044;-70
2023/08/17 11:35:50;;;;;;;22.83;10.95;;;;;;;;;;5020954;28;20163;-70
2023/08/17 11:38:16;;;;;;;16.85;9.43;;;;;;;;;;5021525;28;20025;-70
2023/08/17 11:40:41;;;;;;;21.55;10.23;;;;;;;;;;5037458;28;20540;-71
2023/08/17 11:43:07;;;;;;;17.83;10.25;;;;;;;;;;5041334;28;20123;-70
2023/08/17 11:45:33;;;;;;;20.98;10.00;;;;;;;;;;5042362;28;20040;-70
2023/08/17 11:47:58;;;;;;;21.90;10.50;;;;;;;;;;5042593;28;20033;-70
2023/08/17 11:50:24;;;;;;;18.63;10.40;;;;;;;;;;5042202;28;20427;-70
2023/08/17 11:52:49;;;;;;;18.85;10.30;;;;;;;;;;5042413;28;20048;-70
2023/08/17 11:55:20;;;;;;;19.45;10.52;;;;;;;;;;5029582;28;20029;-70
2023/08/17 11:57:46;;;;;;;21.00;10.85;;;;;;;;;;5021812;28;20057;-70
2023/08/17 12:00:17;;;;;;;18.67;10.68;;;;;;;;;;5022265;28;20511;-70
2023/08/17 12:02:43;;;;;;;21.27;11.07;;;;;;;;;;5022444;28;20028;-70
2023/08/17 12:05:09;;;;;;;20.73;10.60;;;;;;;;;;5020618;28;20021;-70
2023/08/17 12:07:35;;;;;;;18.25;10.75;;;;;;;;;;5022027;28;20095;-70
2023/08/17 12:10:02;;;;;;;20.13;10.15;;;;;;;;;;5021530;28;20415;-70
2023/08/17 12:12:28;;;;;;;17.90;10.05;;;;;;;;;;5021496;28;20034;-70
2023/08/17 12:14:54;;;;;;;20.75;11.02;;;;;;;;;;5024460;28;20927;-71
2023/08/17 12:17:21;;;;;;;17.27;9.90;;;;;;;;;;5042357;28;20035;-70
2023/08/17 12:19:53;;;;;;;20.20;11.23;;;;;;;;;;5049845;28;20507;-70
2023/08/17 12:22:19;;;;;;;17.00;9.47;;;;;;;;;;5043942;28;20525;-70
2023/08/17 12:24:44;;;;;;;16.40;9.82;;;;;;;;;;5041082;28;20022;-70
2023/08/17 12:27:10;;;;;;;22.30;11.30;;;;;;;;;;4988648;28;20030;-70
2023/08/17 12:29:48;;;;;;;20.20;10.65;;;;;;;;;;5014867;28;20057;-70
2023/08/17 12:32:18;;;;;;;18.73;10.15;;;;;;;;;;5007644;28;20045;-70
2023/08/17 12:34:44;;;;;;;18.40;9.80;;;;;;;;;;5020318;28;20045;-70
2023/08/17 12:37:11;;;;;;;17.08;10.48;;;;;;;;;;5021379;28;20037;-70
2023/08/17 12:39:37;;;;;;;17.90;10.18;;;;;;;;;;5021787;28;20053;-70
2023/08/17 12:42:03;;;;;;;20.40;10.32;;;;;;;;;;5018059;28;20029;-70
2023/08/17 12:44:29;;;;;;;18.75;10.02;;;;;;;;;;5001407;28;20117;-70
2023/08/17 12:46:54;;;;;;;19.27;10.68;;;;;;;;;;5009799;28;20080;-70
2023/08/17 12:49:19;;;;;;;23.10;11.90;;;;;;;;;;4987112;28;20507;-70
2023/08/17 12:51:45;;;;;;;18.05;10.93;;;;;;;;;;5007454;28;20084;-70
2023/08/17 12:54:10;;;;;;;17.27;10.30;;;;;;;;;;5008662;28;20138;-70
2023/08/17 12:56:35;;;;;;;16.80;10.20;;;;;;;;;;5021241;28;20087;-70
2023/08/17 12:59:01;;;;;;;17.30;9.85;;;;;;;;;;5002069;28;20038;-70
2023/08/17 13:01:26;;;;;;;18.33;10.23;;;;;;;;;;5015990;28;20043;-70
2023/08/17 13:03:52;;;;;;;16.33;9.98;;;;;;;;;;5003127;28;20120;-70
2023/08/17 13:06:17;;;;;;;17.50;9.85;;;;;;;;;;5015632;28;20025;-70
2023/08/17 13:08:42;;;;;;;15.38;9.88;;;;;;;;;;5001719;28;20399;-70
2023/08/17 13:11:08;;;;;;;19.33;9.73;;;;;;;;;;5021586;28;20038;-70
2023/08/17 13:13:33;;;;;;;17.15;9.48;;;;;;;;;;5004306;28;20037;-70
2023/08/17 13:15:58;;;;;;;20.95;9.45;;;;;;;;;;5002852;28;20069;-70
2023/08/17 13:18:24;;;;;;;14.23;9.35;;;;;;;;;;4997894;28;20509;-70
2023/08/17 13:20:49;;;;;;;17.13;9.85;;;;;;;;;;4999819;28;20177;-70
2023/08/17 13:23:15;;;;;;;19.17;10.13;;;;;;;;;;4989116;28;20104;-70
2023/08/17 13:25:40;;;;;;;18.30;9.55;;;;;;;;;;4999500;28;20030;-70
2023/08/17 13:28:06;;;;;;;15.93;9.57;;;;;;;;;;5001117;28;20080;-70
2023/08/17 13:30:31;;;;;;;21.27;9.60;;;;;;;;;;5000147;28;20065;-70
2023/08/17 13:32:56;;;;;;;18.17;10.82;;;;;;;;;;5022888;28;20420;-70
2023/08/17 13:35:22;;;;;;;19.33;10.25;;;;;;;;;;5041245;28;20083;-70
2023/08/17 13:37:53;;;;;;;19.63;9.88;;;;;;;;;;5039646;28;20029;-70
2023/08/17 13:40:19;;;;;;;18.42;9.98;;;;;;;;;;5040979;28;20033;-70
2023/08/17 13:42:45;;;;;;;18.60;11.13;;;;;;;;;;5040986;28;20651;-70
2023/08/17 13:45:10;;;;;;;17.52;10.38;;;;;;;;;;5040086;28;20087;-70
2023/08/17 13:47:35;;;;;;;18.75;11.00;;;;;;;;;;5041235;28;20037;-71
2023/08/17 13:50:03;;;;;;;19.48;10.52;;;;;;;;;;5041118;28;20889;-71
2023/08/17 13:52:28;;;;;;;19.73;10.30;;;;;;;;;;5039951;28;20041;-71
2023/08/17 13:54:54;;;;;;;20.88;10.80;;;;;;;;;;5039869;28;20612;-71
2023/08/17 13:57:19;;;;;;;25.13;11.25;;;;;;;;;;5035926;28;20026;-71
2023/08/17 13:59:45;;;;;;;19.70;11.52;;;;;;;;;;5020553;28;20026;-70
2023/08/17 14:02:10;;;;;;;20.45;10.98;;;;;;;;;;5015516;28;20786;-71
2023/08/17 14:04:35;;;;;;;17.65;11.00;;;;;;;;;;5018144;28;20128;-71
2023/08/17 14:07:01;;;;;;;19.50;11.98;;;;;;;;;;5024341;28;20458;-70
2023/08/17 14:09:26;;;;;;;22.08;12.23;;;;;;;;;;5021974;28;20721;-69
2023/08/17 14:11:52;;;;;;;20.92;10.82;;;;;;;;;;5025561;28;20021;-68
2023/08/17 14:14:17;;;;;;;19.60;11.23;;;;;;;;;;5031272;28;20018;-70
2023/08/17 14:16:42;;;;;;;18.75;10.63;;;;;;;;;;5020713;28;20049;-69
2023/08/17 14:19:08;;;;;;;19.58;11.27;;;;;;;;;;5014811;28;20095;-69
2023/08/17 14:21:33;;;;;;;22.88;11.68;;;;;;;;;;5015767;28;20128;-69
2023/08/17 14:23:58;;;;;;;20.08;11.30;;;;;;;;;;5016510;28;20149;-69
2023/08/17 14:26:24;;;;;;;17.25;10.95;;;;;;;;;;5013512;28;20056;-69
2023/08/17 14:28:49;;;;;;;18.40;10.75;;;;;;;;;;5017589;28;20045;-69
2023/08/17 14:31:17;;;;;;;20.83;11.65;;;;;;;;;;5024738;28;20050;-69